Time;durP1;ratioP1;P1;durP2;ratioP2;P2;SDS_P1;SDS_P2;PMS_P1;PMS_P2;Temp;Humidity;BMP_temperature;BMP_pressure;BME280_temperature;BME280_humidity;BME280_pressure;Samples;Min_cycle;Max_cycle;Signal;HPM_P1;HPM_P2
2023/05/09 00:01:19;;;;;;;;;3.67;1.67;;;;;25.64;41.41;101532.59;5079283;28;45513;-77
2023/05/09 00:03:44;;;;;;;;;1.00;1.00;;;;;25.71;41.20;101535.34;5079449;27;45437;-78
2023/05/09 00:06:10;;;;;;;;;1.33;1.33;;;;;25.72;41.30;101536.97;5061179;27;45450;-77
2023/05/09 00:08:36;;;;;;;;;1.00;1.00;;;;;25.69;41.38;101535.53;5079155;28;47001;-78
2023/05/09 00:11:02;;;;;;;;;1.67;1.00;;;;;25.72;41.42;101529.81;5079124;27;45298;-78
2023/05/09 00:13:27;;;;;;;;;3.00;1.00;;;;;25.72;41.22;101527.16;5078701;28;45416;-78
2023/05/09 00:15:53;;;;;;;;;2.33;2.00;;;;;25.64;41.33;101505.94;5079144;27;45496;-78
2023/05/09 00:18:20;;;;;;;;;2.67;2.33;;;;;25.73;41.26;101525.31;5078767;28;46969;-79
2023/05/09 00:20:46;;;;;;;;;3.33;2.00;;;;;25.71;40.85;101514.84;5078973;27;45277;-78
2023/05/09 00:23:12;;;;;;;;;2.67;2.67;;;;;25.75;41.22;101512.66;5079046;28;45366;-78
2023/05/09 00:25:37;;;;;;;;;2.00;2.00;;;;;25.74;41.47;101506.50;5078889;27;45439;-79
2023/05/09 00:28:03;;;;;;;;;3.33;2.00;;;;;25.76;40.96;101494.81;5078426;28;47442;-78
2023/05/09 00:30:28;;;;;;;;;2.00;2.00;;;;;25.76;40.89;101493.00;5078756;27;45411;-78
2023/05/09 00:32:54;;;;;;;;;2.00;2.00;;;;;25.76;41.11;101490.34;5078827;28;45365;-78
2023/05/09 00:35:19;;;;;;;;;2.00;2.00;;;;;25.76;41.12;101492.16;5060612;28;45525;-78
2023/05/09 00:37:44;;;;;;;;;3.00;2.00;;;;;25.78;41.58;101490.13;5078527;27;46245;-78
2023/05/09 00:40:10;;;;;;;;;1.00;1.00;;;;;25.78;41.21;101493.63;5078550;28;45477;-77
2023/05/09 00:42:35;;;;;;;;;1.33;1.00;;;;;25.78;41.17;101490.13;5078466;27;45387;-78
2023/05/09 00:45:01;;;;;;;;;2.00;2.00;;;;;25.78;40.92;101484.81;5078733;27;45405;-78
2023/05/09 00:47:28;;;;;;;;;2.67;2.00;;;;;25.78;41.24;101479.47;5078409;28;46034;-77
2023/05/09 00:49:55;;;;;;;;;2.00;2.00;;;;;25.78;40.82;101479.47;5078518;28;45356;-78
2023/05/09 00:52:22;;;;;;;;;4.00;2.33;;;;;25.78;41.20;101476.81;5078191;27;45366;-79
2023/05/09 00:54:49;;;;;;;;;3.00;3.00;;;;;25.48;41.24;101430.56;5078607;27;45356;-77
2023/05/09 00:57:15;;;;;;;;;1.00;1.00;;;;;25.73;40.85;101470.22;5077965;28;46498;-78
2023/05/09 00:59:41;;;;;;;;;1.00;1.00;;;;;25.76;41.17;101470.84;5060168;28;45491;-78
2023/05/09 01:02:06;;;;;;;;;2.00;2.00;;;;;25.71;41.20;101460.72;5078473;28;45369;-78
2023/05/09 01:04:32;;;;;;;;;1.67;1.67;;;;;25.71;41.55;101463.41;5078462;27;45313;-79
2023/05/09 01:07:05;;;;;;;;;3.67;1.00;;;;;25.65;41.14;101449.00;5078117;27;46148;-78
2023/05/09 01:09:48;;;;;;;;;1.00;1.00;;;;;25.46;40.90;101418.47;5077855;28;45364;-78
2023/05/09 01:12:28;;;;;;;;;2.00;2.00;;;;;25.72;41.13;101457.88;5077764;28;45359;-78
2023/05/09 01:15:18;;;;;;;;;1.00;1.00;;;;;25.73;41.07;101456.03;5078094;27;45460;-78
2023/05/09 01:18:05;;;;;;;;;1.00;1.00;;;;;25.68;41.04;101445.13;5077824;27;46193;-78
2023/05/09 01:20:44;;;;;;;;;2.00;2.00;;;;;25.61;41.01;101429.03;5077860;27;45293;-77
2023/05/09 01:23:10;;;;;;;;;3.67;1.33;;;;;25.72;41.18;101446.38;5078104;27;45403;-78
2023/05/09 01:25:47;;;;;;;;;1.00;1.00;;;;;25.71;40.98;101450.88;5077682;27;45534;-77
2023/05/09 01:28:37;;;;;;;;;2.00;2.00;;;;;25.70;41.19;101440.41;5077874;28;46317;-78
2023/05/09 01:31:03;;;;;;;;;4.67;1.33;;;;;25.69;41.21;101428.91;5077012;27;45525;-78
2023/05/09 01:33:32;;;;;;;;;2.00;2.00;;;;;25.70;40.96;101440.41;5077780;27;45458;-78
2023/05/09 01:36:03;;;;;;;;;1.00;1.00;;;;;25.60;41.29;101422.09;5077682;27;45395;-78
2023/05/09 01:38:30;;;;;;;;;2.00;2.00;;;;;25.70;41.23;101430.59;5077485;28;47157;-78
2023/05/09 01:40:58;;;;;;;;;0.67;0.67;;;;;25.67;41.13;101422.13;5077049;27;46147;-77
2023/05/09 01:43:27;;;;;;;;;1.00;1.00;;;;;25.63;41.33;101411.84;5077890;28;45438;-78
2023/05/09 01:45:53;;;;;;;;;2.00;1.00;;;;;25.70;41.19;101421.75;5077596;28;45399;-77
2023/05/09 01:48:25;;;;;;;;;2.00;2.00;;;;;25.68;41.10;101418.47;5077439;27;47230;-78
2023/05/09 01:50:52;;;;;;;;;1.00;1.00;;;;;25.70;41.62;101417.25;5077481;28;45365;-77
2023/05/09 01:53:18;;;;;;;;;1.33;1.33;;;;;25.63;41.21;101409.19;5077605;28;45325;-78
2023/05/09 01:55:46;;;;;;;;;1.00;1.00;;;;;25.70;41.25;101409.25;5077237;27;45250;-78
2023/05/09 01:58:12;;;;;;;;;2.67;1.67;;;;;25.71;40.90;101402.91;5077273;27;45377;-78
2023/05/09 02:00:37;;;;;;;;;2.00;0.33;;;;;25.70;41.03;101406.59;5077310;28;45471;-78
2023/05/09 02:03:03;;;;;;;;;4.00;1.00;;;;;25.65;40.96;101398.34;5077366;27;45427;-77
2023/05/09 02:05:31;;;;;;;;;1.67;1.00;;;;;25.71;40.86;101397.56;5076146;28;45530;-78
2023/05/09 02:07:59;;;;;;;;;2.33;1.67;;;;;25.70;41.04;101395.94;5076575;27;47300;-78
2023/05/09 02:10:28;;;;;;;;;1.00;1.00;;;;;25.63;41.33;101384.41;5077085;27;45483;-77
2023/05/09 02:12:55;;;;;;;;;1.67;1.00;;;;;25.70;41.14;101392.44;5077147;28;45471;-78
2023/05/09 02:15:20;;;;;;;;;3.00;2.33;;;;;25.57;40.94;101366.50;5077068;27;45527;-77
2023/05/09 02:17:46;;;;;;;;;2.00;1.67;;;;;25.54;41.42;101364.22;5076767;28;46550;-77
2023/05/09 02:20:12;;;;;;;;;0.00;0.00;;;;;25.67;41.29;101391.00;5076531;28;45350;-77
2023/05/09 02:22:40;;;;;;;;;1.00;1.00;;;;;25.67;41.25;101382.16;5076514;27;45396;-78
2023/05/09 02:25:06;;;;;;;;;4.00;1.00;;;;;25.65;41.05;101381.53;5077076;28;45589;-77
2023/05/09 02:27:33;;;;;;;;;1.00;1.00;;;;;25.63;41.27;101381.75;5077027;27;46156;-77
2023/05/09 02:30:03;;;;;;;;;2.00;2.00;;;;;25.63;41.26;101387.06;5076842;28;45372;-77
2023/05/09 02:32:31;;;;;;;;;3.00;1.00;;;;;25.54;41.43;101367.72;5055181;28;45404;-78
2023/05/09 02:34:59;;;;;;;;;1.00;1.00;;;;;25.63;41.44;101387.06;5056641;28;45304;-77
2023/05/09 02:37:25;;;;;;;;;1.00;1.00;;;;;25.44;41.09;101348.56;5056012;28;46196;-77
2023/05/09 02:39:51;;;;;;;;;1.00;1.00;;;;;25.56;41.24;101359.53;5038189;28;46169;-77
2023/05/09 02:42:27;;;;;;;;;1.33;1.00;;;;;25.59;41.61;101375.13;5056380;28;45402;-77
2023/05/09 02:44:53;;;;;;;;;1.00;1.00;;;;;25.50;41.10;101356.59;5056579;28;45400;-78
2023/05/09 02:47:19;;;;;;;;;1.67;1.67;;;;;25.61;41.15;101365.94;5056319;28;45912;-77
2023/05/09 02:49:44;;;;;;;;;2.00;1.67;;;;;25.61;41.38;101373.94;5056437;28;45484;-78
2023/05/09 02:52:10;;;;;;;;;0.67;0.67;;;;;25.62;41.39;101369.44;5055887;28;45266;-77
2023/05/09 02:54:36;;;;;;;;;0.00;0.00;;;;;25.60;41.38;101363.47;5056335;28;45369;-78
2023/05/09 02:57:02;;;;;;;;;0.00;0.00;;;;;25.59;41.15;101354.66;5056094;28;45438;-77
2023/05/09 02:59:27;;;;;;;;;1.67;1.00;;;;;25.63;41.25;101358.56;5056080;28;45381;-78
2023/05/09 03:01:53;;;;;;;;;2.33;1.33;;;;;25.61;41.41;101357.94;5056341;28;45456;-78
2023/05/09 03:04:18;;;;;;;;;1.00;1.00;;;;;25.63;41.22;101352.44;5056167;28;45424;-79
2023/05/09 03:06:44;;;;;;;;;1.33;1.33;;;;;25.65;41.32;101350.41;5055636;28;45368;-77
2023/05/09 03:09:09;;;;;;;;;0.33;0.33;;;;;25.65;41.48;101346.91;5056115;28;45407;-78
2023/05/09 03:11:37;;;;;;;;;2.67;1.00;;;;;25.59;41.42;101341.31;5056173;28;45464;-78
2023/05/09 03:14:03;;;;;;;;;1.00;1.00;;;;;25.66;41.59;101345.91;5056290;28;45227;-78
2023/05/09 03:16:29;;;;;;;;;0.67;0.67;;;;;25.48;41.55;101307.19;5055741;28;46137;-77
2023/05/09 03:18:55;;;;;;;;;2.00;2.00;;;;;25.66;41.30;101338.69;5055840;28;45242;-78
2023/05/09 03:21:20;;;;;;;;;1.67;1.67;;;;;25.66;41.09;101345.91;5063614;27;45300;-78
2023/05/09 03:23:46;;;;;;;;;1.00;1.00;;;;;25.66;41.44;101329.91;5076261;28;45598;-78
2023/05/09 03:26:11;;;;;;;;;1.00;1.00;;;;;25.51;41.04;101307.66;5076130;28;45847;-78
2023/05/09 03:28:37;;;;;;;;;1.00;1.00;;;;;25.62;41.17;101327.63;5076120;28;45391;-78
2023/05/09 03:31:03;;;;;;;;;2.00;0.67;;;;;25.52;41.39;101311.16;5076232;28;45471;-77
2023/05/09 03:33:28;;;;;;;;;1.00;1.00;;;;;25.59;41.35;101320.00;5075759;28;45544;-77
2023/05/09 03:35:54;;;;;;;;;2.33;1.00;;;;;25.57;41.56;101318.56;5075671;28;45673;-78
2023/05/09 03:38:19;;;;;;;;;1.00;1.00;;;;;25.60;41.17;101316.34;5075827;28;45530;-77
2023/05/09 03:40:44;;;;;;;;;1.00;0.00;;;;;25.53;41.42;101310.09;5075941;28;45329;-78
2023/05/09 03:43:10;;;;;;;;;1.00;1.00;;;;;25.34;41.21;101271.66;5076184;28;45364;-78
2023/05/09 03:45:37;;;;;;;;;1.33;1.33;;;;;25.60;41.38;101313.69;5075579;27;46886;-78
2023/05/09 03:48:04;;;;;;;;;1.00;1.00;;;;;25.57;41.26;101308.72;5075920;28;45434;-77
2023/05/09 03:50:29;;;;;;;;;0.33;0.33;;;;;25.58;41.22;101304.22;5057246;28;45933;-78
2023/05/09 03:52:55;;;;;;;;;2.67;1.67;;;;;25.47;41.38;101277.09;5075724;28;45367;-78
2023/05/09 03:55:22;;;;;;;;;0.00;0.00;;;;;25.57;41.33;101299.91;5075601;27;46336;-78
2023/05/09 03:57:48;;;;;;;;;1.00;1.00;;;;;25.57;41.25;101294.56;5075494;28;45304;-77
2023/05/09 04:00:14;;;;;;;;;0.67;0.67;;;;;25.58;41.15;101290.91;5075817;28;45343;-78
2023/05/09 04:02:40;;;;;;;;;1.00;1.00;;;;;25.48;41.42;101270.75;5075789;27;45329;-77
2023/05/09 04:05:05;;;;;;;;;0.00;0.00;;;;;25.47;41.31;101265.63;5075108;28;47599;-79
2023/05/09 04:07:31;;;;;;;;;1.00;1.00;;;;;25.54;41.45;101273.66;5075565;28;45309;-77
2023/05/09 04:09:56;;;;;;;;;0.33;0.00;;;;;25.57;41.49;101281.25;5075800;28;45537;-78
2023/05/09 04:12:21;;;;;;;;;1.00;1.00;;;;;25.56;41.49;101271.59;5075544;28;45388;-78
2023/05/09 04:14:47;;;;;;;;;2.00;1.33;;;;;25.54;41.46;101260.31;5075473;28;45354;-78
2023/05/09 04:17:12;;;;;;;;;0.00;0.00;;;;;25.57;41.29;101268.75;5075208;27;50783;-78
2023/05/09 04:19:37;;;;;;;;;1.33;1.00;;;;;25.47;41.32;101247.81;5075198;28;45350;-78
2023/05/09 04:22:03;;;;;;;;;0.67;0.00;;;;;25.40;41.62;101239.75;5075327;27;45286;-78
2023/05/09 04:24:28;;;;;;;;;3.00;1.67;;;;;25.58;41.33;101256.28;5057157;28;45983;-78
2023/05/09 04:26:54;;;;;;;;;0.33;0.33;;;;;25.59;41.35;101255.25;5075257;28;45434;-78
2023/05/09 04:29:19;;;;;;;;;1.00;1.00;;;;;25.58;41.34;101249.06;5075498;28;45264;-78
2023/05/09 04:31:44;;;;;;;;;1.00;1.00;;;;;25.59;41.29;101256.06;5075536;27;45207;-79
2023/05/09 04:34:10;;;;;;;;;2.00;2.00;;;;;25.56;41.20;101245.78;5074975;28;45388;-78
2023/05/09 04:36:36;;;;;;;;;0.00;0.00;;;;;25.60;41.41;101249.72;5075424;28;45672;-77
2023/05/09 04:39:01;;;;;;;;;1.00;1.00;;;;;25.59;41.34;101244.56;5075155;28;45455;-77
2023/05/09 04:41:26;;;;;;;;;1.00;1.00;;;;;25.59;41.41;101244.56;5075374;28;45485;-78
2023/05/09 04:43:51;;;;;;;;;0.33;0.00;;;;;25.60;41.34;101247.06;5075823;28;46123;-78
2023/05/09 04:46:17;;;;;;;;;1.00;1.00;;;;;25.58;41.18;101242.94;5078393;27;46909;-77
2023/05/09 04:48:42;;;;;;;;;2.00;1.00;;;;;25.46;41.75;101224.81;5078323;27;45391;-78
2023/05/09 04:51:08;;;;;;;;;1.00;1.00;;;;;25.49;41.48;101229.78;5078608;27;45681;-78
2023/05/09 04:53:33;;;;;;;;;1.33;1.33;;;;;25.56;41.65;101237.78;5078154;28;46156;-77
2023/05/09 04:55:59;;;;;;;;;1.00;1.00;;;;;25.48;41.70;101230.78;5078660;28;45581;-80
2023/05/09 04:58:25;;;;;;;;;0.00;0.00;;;;;25.30;41.29;101201.97;5078894;28;45445;-75
2023/05/09 05:00:51;;;;;;;;;4.00;0.67;;;;;25.56;41.51;101234.31;5078496;27;45408;-78
2023/05/09 05:03:17;;;;;;;;;1.00;1.00;;;;;25.55;41.59;101238.84;5077934;27;47078;-79
2023/05/09 05:05:42;;;;;;;;;0.00;0.00;;;;;25.46;41.62;101222.16;5078064;28;45440;-77
2023/05/09 05:08:07;;;;;;;;;3.67;1.00;;;;;25.54;41.53;101231.84;5078324;27;45291;-79
2023/05/09 05:10:33;;;;;;;;;0.67;0.67;;;;;25.49;41.69;101212.97;5078285;27;45486;-78
2023/05/09 05:12:58;;;;;;;;;2.67;0.00;;;;;25.55;41.66;101217.53;5077931;28;47162;-81
2023/05/09 05:15:23;;;;;;;;;1.00;1.00;;;;;25.48;41.87;101208.63;5078252;28;45392;-79
2023/05/09 05:17:49;;;;;;;;;1.00;1.00;;;;;25.46;42.15;101205.34;5077654;27;45323;-75
2023/05/09 05:20:14;;;;;;;;;1.00;1.00;;;;;25.58;42.26;101216.31;5078126;28;45409;-76
2023/05/09 05:22:40;;;;;;;;;2.00;0.00;;;;;25.52;41.96;101207.25;5077776;27;46110;-75
2023/05/09 05:25:05;;;;;;;;;1.00;1.00;;;;;25.60;42.24;101220.41;5078068;28;45288;-75
2023/05/09 05:27:31;;;;;;;;;3.00;2.00;;;;;25.56;41.76;101205.00;5078156;27;45336;-75
2023/05/09 05:29:56;;;;;;;;;1.00;0.00;;;;;25.52;41.89;101194.75;5078042;28;45320;-75
2023/05/09 05:32:21;;;;;;;;;1.00;1.00;;;;;25.61;41.88;101208.72;5077166;28;46077;-75
2023/05/09 05:34:47;;;;;;;;;0.33;0.33;;;;;25.61;42.01;101206.06;5077720;28;45474;-76
2023/05/09 05:37:12;;;;;;;;;2.00;1.00;;;;;25.62;42.00;101209.56;5077872;27;45403;-75
2023/05/09 05:39:37;;;;;;;;;1.00;1.00;;;;;25.63;42.05;101203.22;5077666;28;45506;-75
2023/05/09 05:42:03;;;;;;;;;1.67;0.00;;;;;25.62;42.06;101205.06;5077593;28;46119;-75
2023/05/09 05:44:28;;;;;;;;;0.00;0.00;;;;;25.60;42.22;101195.63;5077700;28;45379;-74
2023/05/09 05:46:53;;;;;;;;;1.00;1.00;;;;;25.62;41.97;101202.38;5077328;28;45322;-76
2023/05/09 05:49:19;;;;;;;;;1.00;1.00;;;;;25.62;41.97;101197.06;5077547;28;45491;-75
2023/05/09 05:51:44;;;;;;;;;0.00;0.00;;;;;25.63;42.10;101197.91;5077450;28;45336;-75
2023/05/09 05:54:10;;;;;;;;;2.00;0.67;;;;;25.56;41.71;101183.69;5077549;27;45305;-75
2023/05/09 05:56:35;;;;;;;;;1.00;1.00;;;;;25.61;42.02;101191.91;5076472;27;45335;-74
2023/05/09 05:59:00;;;;;;;;;0.00;0.00;;;;;25.60;42.05;101184.97;5077487;28;45475;-73
2023/05/09 06:01:25;;;;;;;;;0.00;0.00;;;;;25.59;42.08;101181.47;5077172;27;47173;-83
2023/05/09 06:03:53;;;;;;;;;0.00;0.00;;;;;25.63;41.97;101190.69;5077940;27;45437;-76
2023/05/09 06:06:20;;;;;;;;;4.00;1.00;;;;;25.58;42.28;101179.00;5077223;28;45326;-74
2023/05/09 06:08:48;;;;;;;;;0.00;0.00;;;;;25.51;42.13;101173.63;5077285;27;45459;-79
2023/05/09 06:11:14;;;;;;;;;0.00;0.00;;;;;25.63;41.90;101179.25;5076998;28;47309;-59
2023/05/09 06:13:40;;;;;;;;;1.00;1.00;;;;;25.64;42.24;101186.19;5058714;28;45428;-60
2023/05/09 06:16:06;;;;;;;;;1.00;1.00;;;;;25.64;42.28;101178.19;5076586;28;48084;-59
2023/05/09 06:18:31;;;;;;;;;1.00;1.00;;;;;25.62;42.32;101175.75;5077263;28;45400;-60
2023/05/09 06:20:57;;;;;;;;;0.00;0.00;;;;;25.57;42.54;101161.38;5076877;27;46304;-75
2023/05/09 06:23:22;;;;;;;;;0.67;0.67;;;;;25.60;42.73;101155.66;5077214;28;45197;-76
2023/05/09 06:25:48;;;;;;;;;1.00;1.00;;;;;25.57;42.43;101158.69;5077073;28;45662;-78
2023/05/09 06:28:13;;;;;;;;;1.00;1.00;;;;;25.66;42.59;101170.81;5077104;27;45423;-76
2023/05/09 06:30:39;;;;;;;;;3.00;1.00;;;;;25.61;42.64;101158.09;5076602;27;45347;-78
2023/05/09 06:33:04;;;;;;;;;1.00;1.00;;;;;25.66;42.60;101172.69;5076731;28;45378;-78
2023/05/09 06:35:30;;;;;;;;;0.00;0.00;;;;;25.59;42.57;101156.66;5077013;28;45345;-74
2023/05/09 06:37:55;;;;;;;;;0.00;0.00;;;;;25.62;42.95;101156.28;5076921;27;45368;-75
2023/05/09 06:40:20;;;;;;;;;0.00;0.00;;;;;25.60;43.04;101153.81;5058162;28;46514;-74
2023/05/09 06:42:46;;;;;;;;;0.00;0.00;;;;;25.63;42.78;101160.59;5076852;28;45367;-74
2023/05/09 06:45:11;;;;;;;;;0.00;0.00;;;;;25.57;42.88;101148.88;5076479;28;45392;-74
2023/05/09 06:47:36;;;;;;;;;1.33;1.33;;;;;25.62;43.06;101159.75;5076654;28;45347;-74
2023/05/09 06:50:02;;;;;;;;;1.00;1.00;;;;;25.52;43.25;101138.00;5076661;27;45469;-74
2023/05/09 06:52:27;;;;;;;;;2.00;0.00;;;;;25.48;42.82;101131.38;5076412;27;45379;-75
2023/05/09 06:54:53;;;;;;;;;0.67;0.00;;;;;25.57;43.14;101145.38;5076611;28;45682;-73
2023/05/09 06:57:18;;;;;;;;;0.00;0.00;;;;;25.60;42.89;101150.31;5076591;28;45309;-74
2023/05/09 06:59:44;;;;;;;;;1.00;1.00;;;;;25.47;43.33;101127.09;5075956;27;46360;-75
2023/05/09 07:02:10;;;;;;;;;0.67;0.67;;;;;25.47;43.35;101125.25;5076442;28;45404;-75
2023/05/09 07:04:35;;;;;;;;;4.00;1.00;;;;;25.27;43.52;101094.00;5076434;28;45362;-75
2023/05/09 07:07:00;;;;;;;;;0.00;0.00;;;;;25.58;43.55;101139.03;5075821;27;45423;-75
2023/05/09 07:09:27;;;;;;;;;0.00;0.00;;;;;25.60;43.41;101139.66;5076317;28;47306;-74
2023/05/09 07:11:54;;;;;;;;;0.00;0.00;;;;;25.59;43.19;101133.50;5076323;28;45407;-75
2023/05/09 07:14:19;;;;;;;;;1.33;0.00;;;;;25.54;43.32;101122.63;5076035;28;45346;-74
2023/05/09 07:16:45;;;;;;;;;1.33;0.00;;;;;25.46;42.97;101115.63;5076272;28;45219;-74
2023/05/09 07:19:11;;;;;;;;;2.00;0.00;;;;;25.62;43.43;101134.97;5076139;28;46282;-75
2023/05/09 07:21:36;;;;;;;;;0.00;0.00;;;;;25.53;43.36;101115.63;5075969;27;45357;-75
2023/05/09 07:24:02;;;;;;;;;0.00;0.00;;;;;25.62;43.09;101134.97;5076366;28;45269;-74
2023/05/09 07:26:28;;;;;;;;;0.33;0.33;;;;;25.62;42.91;101127.78;5076240;28;45459;-75
2023/05/09 07:28:53;;;;;;;;;0.67;0.67;;;;;25.58;43.01;101115.88;5075591;27;45486;-75
2023/05/09 07:31:18;;;;;;;;;1.00;1.00;;;;;25.43;43.04;101086.69;5076187;27;45400;-75
2023/05/09 07:33:44;;;;;;;;;0.00;0.00;;;;;25.51;43.30;101107.84;5075954;27;45453;-74
2023/05/09 07:36:12;;;;;;;;;3.67;0.00;;;;;25.63;43.40;101123.28;5076047;27;45571;-74
2023/05/09 07:38:38;;;;;;;;;2.00;1.00;;;;;25.58;43.45;101109.75;5075972;28;46076;-75
2023/05/09 07:41:04;;;;;;;;;0.67;0.67;;;;;25.57;43.12;101108.91;5075392;28;45238;-74
2023/05/09 07:43:29;;;;;;;;;1.00;0.33;;;;;25.57;43.56;101108.09;5075457;28;45309;-73
2023/05/09 07:45:54;;;;;;;;;2.67;1.00;;;;;25.63;43.45;101113.44;5075853;28;45321;-59
2023/05/09 07:48:20;;;;;;;;;1.33;1.00;;;;;25.57;43.35;101105.41;5075585;27;46076;-72
2023/05/09 07:50:45;;;;;;;;;3.67;1.33;;;;;25.65;43.57;101112.41;5075924;28;45402;-72
2023/05/09 07:53:10;;;;;;;;;4.67;2.00;;;;;25.63;43.80;101116.09;5075720;27;45364;-72
2023/05/09 07:55:36;;;;;;;;;2.67;1.00;;;;;25.66;43.64;101111.41;5075705;27;45347;-73
2023/05/09 07:58:01;;;;;;;;;2.00;1.00;;;;;25.65;43.52;101112.41;5075192;28;47048;-72
2023/05/09 08:00:26;;;;;;;;;1.00;1.00;;;;;25.63;43.72;101113.44;5075704;28;45317;-72
2023/05/09 08:02:52;;;;;;;;;9.33;3.33;;;;;25.65;43.68;101112.41;5075690;28;45368;-72
2023/05/09 08:05:18;;;;;;;;;9.67;6.67;;;;;25.54;43.86;101092.50;5075522;27;45419;-72
2023/05/09 08:07:43;;;;;;;;;12.00;5.00;;;;;25.65;43.63;101101.75;5075264;28;47017;-72
2023/05/09 08:10:09;;;;;;;;;3.67;2.00;;;;;25.60;43.52;101099.69;5075594;28;45432;-72
2023/05/09 08:12:34;;;;;;;;;12.67;5.33;;;;;25.41;43.61;101070.09;5075036;28;45364;-72
2023/05/09 08:14:59;;;;;;;;;22.67;10.00;;;;;25.65;43.68;101089.28;5075337;28;45490;-72
2023/05/09 08:17:25;;;;;;;;;47.00;20.25;;;;;25.65;43.85;101091.94;5075260;28;46622;-72
2023/05/09 08:19:50;;;;;;;;;49.50;28.50;;;;;25.65;43.64;101091.94;5077418;28;45399;-72
2023/05/09 08:22:17;;;;;;;;;65.50;36.50;;;;;25.67;43.66;101097.06;5078856;27;45382;-73
2023/05/09 08:24:44;;;;;;;;;96.00;44.25;;;;;25.47;44.03;101060.50;5079124;28;45387;-74
2023/05/09 08:27:12;;;;;;;;;121.75;51.25;;;;;25.63;44.19;101092.13;5078054;27;46860;-59
2023/05/09 08:29:37;;;;;;;;;82.50;41.75;;;;;25.59;44.16;101087.38;5078726;27;45456;-59
2023/05/09 08:32:03;;;;;;;;;75.25;40.25;;;;;25.60;44.21;101091.72;5078766;28;45356;-73
2023/05/09 08:34:30;;;;;;;;;73.50;35.25;;;;;25.58;43.98;101091.88;5078618;27;45546;-73
2023/05/09 08:36:55;;;;;;;;;72.25;36.25;;;;;25.46;44.23;101081.00;5078618;27;46371;-76
2023/05/09 08:39:20;;;;;;;;;64.00;32.75;;;;;25.39;44.46;101050.84;5078399;27;45446;-76
2023/05/09 08:41:46;;;;;;;;;57.25;32.75;;;;;25.56;44.14;101087.78;5078282;28;45384;-79
2023/05/09 08:44:12;;;;;;;;;71.50;40.00;;;;;25.55;43.81;101084.31;5078714;28;45532;-78
2023/05/09 08:46:41;;;;;;;;;65.00;37.25;;;;;25.55;44.01;101086.16;5078390;28;45330;-75
2023/05/09 08:49:08;;;;;;;;;63.25;33.75;;;;;25.51;43.91;101091.88;5078364;27;45336;-75
2023/05/09 08:51:37;;;;;;;;;61.50;29.50;;;;;25.41;43.59;101067.44;5078230;27;45429;-77
2023/05/09 08:54:04;;;;;;;;;65.50;36.50;;;;;25.31;43.94;101065.16;5078107;27;45440;-75
2023/05/09 08:56:30;;;;;;;;;49.50;26.00;;;;;25.38;43.90;101076.66;5078095;28;46428;-75
2023/05/09 08:58:56;;;;;;;;;49.75;23.25;;;;;25.40;43.92;101077.25;5078019;28;45425;-77
2023/05/09 09:01:21;;;;;;;;;36.75;18.00;;;;;25.39;43.73;101080.97;5078258;27;45515;-58
2023/05/09 09:03:48;;;;;;;;;23.00;13.67;;;;;25.34;43.60;101080.75;5078330;28;45442;-59
2023/05/09 09:06:15;;;;;;;;;27.67;15.00;;;;;25.33;43.54;101079.09;5078084;27;46376;-60
2023/05/09 09:08:42;;;;;;;;;29.33;12.33;;;;;25.18;43.36;101074.72;5077802;28;45439;-58
2023/05/09 09:11:13;;;;;;;;;15.33;10.33;;;;;25.25;43.78;101089.88;5078257;27;45462;-58
2023/05/09 09:13:40;;;;;;;;;23.33;12.33;;;;;25.22;43.74;101077.78;5078071;27;45331;-59
2023/05/09 09:16:10;;;;;;;;;24.67;13.67;;;;;25.24;43.46;101091.72;5077358;27;46275;-59
2023/05/09 09:18:36;;;;;;;;;27.33;13.33;;;;;25.25;43.68;101095.22;5077777;28;45292;-58
2023/05/09 09:21:08;;;;;;;;;23.67;12.33;;;;;25.20;43.76;101085.16;5077828;27;45325;-59
2023/05/09 09:23:35;;;;;;;;;22.33;13.33;;;;;25.25;43.63;101097.88;5077688;28;45417;-59
2023/05/09 09:26:05;;;;;;;;;22.67;13.33;;;;;25.26;43.54;101097.69;5077745;28;45343;-57
2023/05/09 09:28:31;;;;;;;;;17.67;14.33;;;;;25.27;43.71;101099.31;5077780;27;45300;-58
2023/05/09 09:30:57;;;;;;;;;20.00;12.67;;;;;25.28;43.73;101102.81;5077432;28;45313;-58
2023/05/09 09:33:23;;;;;;;;;25.33;16.67;;;;;25.28;43.56;101105.47;5077712;28;45368;-59
2023/05/09 09:35:50;;;;;;;;;28.67;15.00;;;;;25.27;43.43;101106.50;5077585;28;47867;-58
2023/05/09 09:38:20;;;;;;;;;19.67;13.33;;;;;25.22;43.69;101098.25;5077207;27;45345;-58
2023/05/09 09:40:51;;;;;;;;;20.00;13.00;;;;;25.27;43.43;101098.50;5076971;28;45560;-58
2023/05/09 09:43:17;;;;;;;;;34.25;17.25;;;;;25.29;43.60;101105.28;5077614;28;45299;-58
2023/05/09 09:45:42;;;;;;;;;63.00;36.25;;;;;25.28;43.63;101095.66;5077231;28;45311;-58
2023/05/09 09:48:08;;;;;;;;;93.50;50.50;;;;;25.28;43.97;101098.31;5077374;28;45406;-58
2023/05/09 09:50:33;;;;;;;;;96.50;48.00;;;;;25.22;43.65;101087.59;5077459;28;45225;-58
2023/05/09 09:53:02;;;;;;;;;73.75;39.75;;;;;25.27;43.88;101099.31;5076941;28;45297;-58
2023/05/09 09:55:28;;;;;;;;;71.00;39.00;;;;;25.03;43.80;101058.03;5077127;28;46478;-58
2023/05/09 09:57:53;;;;;;;;;78.25;42.75;;;;;25.17;43.68;101085.53;5077271;28;45384;-58
2023/05/09 10:00:26;;;;;;;;;67.25;36.50;;;;;25.13;43.52;101079.81;5077442;28;45360;-59
2023/05/09 10:02:57;;;;;;;;;65.00;35.00;;;;;25.22;43.64;101101.75;5077357;27;45872;-60
2023/05/09 10:05:26;;;;;;;;;71.75;36.75;;;;;25.22;44.08;101099.09;5076836;27;46034;-74
2023/05/09 10:08:01;;;;;;;;;58.00;30.25;;;;;25.25;43.80;101098.72;5076838;28;45237;-73
2023/05/09 10:10:28;;;;;;;;;53.25;29.75;;;;;25.31;43.72;101094.44;5077143;27;45355;-72
2023/05/09 10:13:02;;;;;;;;;54.75;31.00;;;;;25.31;43.77;101086.44;5077131;28;45375;-74
2023/05/09 10:15:30;;;;;;;;;55.25;30.25;;;;;25.40;43.50;101092.41;5076814;27;45395;-74
2023/05/09 10:17:57;;;;;;;;;53.00;31.75;;;;;25.45;43.12;101094.50;5076891;28;45397;-73
2023/05/09 10:20:24;;;;;;;;;51.75;31.75;;;;;25.47;43.00;101093.31;5076913;27;45397;-72
2023/05/09 10:22:54;;;;;;;;;49.00;30.00;;;;;25.41;43.01;101083.41;5076711;27;45533;-72
2023/05/09 10:25:21;;;;;;;;;53.75;33.50;;;;;25.32;43.46;101065.97;5076720;27;46940;-73
2023/05/09 10:27:47;;;;;;;;;52.50;31.00;;;;;25.50;43.16;101087.56;5076847;28;45370;-73
2023/05/09 10:30:22;;;;;;;;;48.00;31.00;;;;;25.51;42.77;101089.22;5058643;27;45503;-73
2023/05/09 10:33:07;;;;;;;;;48.75;27.75;;;;;25.44;43.08;101068.88;5076588;28;45549;-73
2023/05/09 10:35:39;;;;;;;;;46.50;30.25;;;;;25.56;42.84;101080.63;5076162;28;46940;-74
2023/05/09 10:38:06;;;;;;;;;38.25;24.75;;;;;25.55;42.79;101070.16;5076597;28;45396;-74
2023/05/09 10:40:33;;;;;;;;;49.75;24.50;;;;;25.36;42.86;101040.56;5076511;28;45352;-75
2023/05/09 10:42:58;;;;;;;;;48.50;27.25;;;;;25.51;43.19;101067.91;5075755;27;45502;-74
2023/05/09 10:45:24;;;;;;;;;42.25;23.50;;;;;25.39;43.19;101046.34;5076487;28;45483;-75
2023/05/09 10:47:51;;;;;;;;;41.50;28.75;;;;;25.42;43.00;101053.13;5076649;27;45514;-75
2023/05/09 10:50:18;;;;;;;;;46.75;22.75;;;;;25.59;42.95;101071.41;5076180;27;45277;-74
2023/05/09 10:53:02;;;;;;;;;43.25;24.25;;;;;25.60;42.79;101073.06;5076465;28;45289;-75
2023/05/09 10:56:00;;;;;;;;;43.75;27.75;;;;;25.55;42.71;101064.84;5076188;28;47316;-74
2023/05/09 10:58:35;;;;;;;;;37.50;21.00;;;;;25.39;43.03;101040.19;5076349;27;45274;-74
2023/05/09 11:01:02;;;;;;;;;42.50;23.75;;;;;25.63;42.72;101076.13;5076401;28;45435;-75
2023/05/09 11:03:48;;;;;;;;;34.00;17.25;;;;;25.60;42.79;101071.22;5076252;27;45491;-74
2023/05/09 11:06:39;;;;;;;;;37.25;26.00;;;;;25.65;43.09;101075.13;5075393;27;47286;-74
2023/05/09 11:09:34;;;;;;;;;45.00;25.00;;;;;25.64;42.91;101066.31;5076096;27;45204;-75
2023/05/09 11:12:08;;;;;;;;;37.75;22.00;;;;;25.66;42.69;101072.25;5076294;28;45200;-74
2023/05/09 11:14:43;;;;;;;;;38.00;21.50;;;;;25.68;42.83;101072.88;5076161;28;45623;-75
2023/05/09 11:17:13;;;;;;;;;33.25;19.50;;;;;25.69;42.68;101068.34;5075936;27;47040;-75
2023/05/09 11:19:41;;;;;;;;;30.50;17.50;;;;;25.70;42.59;101073.50;5075505;28;45421;-75
2023/05/09 11:22:15;;;;;;;;;28.50;17.75;;;;;25.70;42.68;101065.50;5057852;28;45324;-77